createdAt,value
2023-01-28T00:01:02.743Z,102456.78
2023-01-28T00:03:30.427Z,102467.13
2023-01-28T00:06:02.635Z,102467.13
2023-01-28T00:08:30.258Z,102466.31
2023-01-28T00:10:59.646Z,102466.31
2023-01-28T00:13:27.281Z,102469.09
2023-01-28T00:15:56.347Z,102470.25
2023-01-28T00:18:25.675Z,102466.31
2023-01-28T00:20:59.915Z,102468.28
2023-01-28T00:23:27.545Z,102473.03
2023-01-28T00:25:55.677Z,102478.13
2023-01-28T00:28:23.573Z,102475.00
2023-01-28T00:30:51.274Z,102476.66
2023-01-28T00:33:18.900Z,102480.59
2023-01-28T00:35:49.315Z,102468.59
2023-01-28T00:38:16.923Z,102472.53
2023-01-28T00:40:47.134Z,102467.78
2023-01-28T00:43:15.718Z,102471.38
2023-01-28T00:45:43.674Z,102475.84
2023-01-28T00:48:11.521Z,102473.38
2023-01-28T00:50:40.302Z,102475.34
2023-01-28T00:53:09.264Z,102482.56
2023-01-28T00:55:36.862Z,102490.94
2023-01-28T00:58:04.495Z,102479.78
2023-01-28T01:47:30.965Z,102495.28
2023-01-28T01:49:58.632Z,102503.69
2023-01-28T01:52:29.709Z,102512.88
2023-01-28T01:54:58.076Z,102507.63
2023-01-28T01:57:26.294Z,102512.06
2023-01-28T01:59:53.947Z,102512.06
2023-01-28T02:46:56.264Z,102500.28
2023-01-28T02:49:25.367Z,102513.03
2023-01-28T02:52:11.350Z,102508.56
2023-01-28T02:54:39.364Z,102508.56
2023-01-28T02:57:09.369Z,102505.75
2023-01-28T02:59:37.406Z,102514.13
2023-01-28T03:46:11.550Z,102516.22
2023-01-28T03:48:39.401Z,102509.81
2023-01-28T03:51:09.800Z,102511.78
2023-01-28T03:53:38.362Z,102509.81
2023-01-28T03:56:06.047Z,102511.78
2023-01-28T03:58:52.794Z,102515.41
2023-01-28T04:45:15.160Z,102530.72
2023-01-28T04:48:02.276Z,102529.06
2023-01-28T04:50:48.769Z,102525.13
2023-01-28T04:53:20.945Z,102521.19
2023-01-28T04:55:59.245Z,102516.44
2023-01-28T04:58:31.147Z,102528.44
2023-01-28T05:45:10.661Z,102544.97
2023-01-28T05:47:45.511Z,102543.34
2023-01-28T05:50:38.581Z,102534.94
2023-01-28T05:53:15.456Z,102543.34
2023-01-28T05:55:47.101Z,102542.50
2023-01-28T05:58:14.794Z,102544.97
2023-01-28T06:00:43.495Z,102535.38
2023-01-28T06:03:12.808Z,102550.56
2023-01-28T06:05:40.602Z,102541.56
2023-01-28T06:08:08.818Z,102542.72
2023-01-28T06:10:38.138Z,102541.06
2023-01-28T06:13:05.815Z,102547.47
2023-01-28T06:15:55.759Z,102548.00
2023-01-28T06:18:41.219Z,102551.59
2023-01-28T06:21:09.707Z,102544.38
2023-01-28T06:23:37.814Z,102552.75
2023-01-28T06:26:09.169Z,102546.03
2023-01-28T06:28:38.509Z,102557.19
2023-01-28T06:31:06.430Z,102561.13
2023-01-28T06:33:34.276Z,102560.00
2023-01-28T06:36:04.805Z,102557.19
2023-01-28T06:38:32.428Z,102555.53
2023-01-28T06:41:00.265Z,102554.41
2023-01-28T06:43:30.584Z,102555.53
2023-01-28T06:45:58.297Z,102563.94
2023-01-28T06:48:25.962Z,102565.06
2023-01-28T06:50:53.637Z,102569.50
2023-01-28T06:53:22.578Z,102574.28
2023-01-28T06:55:50.155Z,102561.13
2023-01-28T06:58:17.994Z,102573.44
2023-01-28T07:00:45.807Z,102569.50
2023-01-28T07:03:13.565Z,102565.91
2023-01-28T07:05:41.206Z,102564.25
2023-01-28T07:08:08.873Z,102569.50
2023-01-28T07:10:37.864Z,102572.31
2023-01-28T07:13:05.462Z,102578.72
2023-01-28T07:15:33.166Z,102571.16
2023-01-28T07:18:01.147Z,102567.53
2023-01-28T07:20:28.755Z,102581.19
2023-01-28T07:22:56.366Z,102575.59
2023-01-28T07:25:23.957Z,102558.94
2023-01-28T07:27:53.271Z,102578.09
2023-01-28T07:30:21.226Z,102564.53
2023-01-28T07:32:48.931Z,102571.69
2023-01-28T07:35:16.567Z,102576.13
2023-01-28T07:37:44.411Z,102573.34
2023-01-28T07:40:13.058Z,102570.56
2023-01-28T07:42:41.008Z,102571.69
2023-01-28T07:45:10.687Z,102573.34
2023-01-28T07:47:38.607Z,102568.03
2023-01-28T07:50:06.554Z,102566.13
2023-01-28T07:52:38.805Z,102568.91
2023-01-28T07:55:06.630Z,102566.13
2023-01-28T07:57:34.251Z,102573.63
2023-01-28T08:00:01.807Z,102574.50
2023-01-28T08:02:41.062Z,102577.28
2023-01-28T08:05:09.114Z,102577.28
2023-01-28T08:07:36.745Z,102580.09
2023-01-28T08:10:04.480Z,102587.59
2023-01-28T08:12:32.044Z,102593.19
2023-01-28T08:15:00.082Z,102588.47
2023-01-28T08:17:27.825Z,102594.06
2023-01-28T08:19:56.806Z,102584.53
2023-01-28T08:22:25.879Z,102590.41
2023-01-28T08:24:53.508Z,102601.28
2023-01-28T08:27:21.138Z,102601.28
2023-01-28T08:29:49.004Z,102595.69
2023-01-28T08:32:16.650Z,102610.81
2023-01-28T08:34:44.238Z,102613.28
2023-01-28T08:37:13.185Z,102611.63
2023-01-28T08:39:40.825Z,102619.19
2023-01-28T08:42:08.464Z,102622.81
2023-01-28T08:44:36.218Z,102617.22
2023-01-28T08:47:03.805Z,102614.44
2023-01-28T08:49:31.472Z,102616.09
2023-01-28T08:51:59.278Z,102624.47
2023-01-28T08:54:28.255Z,102609.66
2023-01-28T08:56:55.849Z,102618.06
2023-01-28T08:59:23.560Z,102619.69
2023-01-28T09:01:51.216Z,102616.91
2023-01-28T09:04:18.877Z,102612.47
2023-01-28T09:06:46.651Z,102626.13
2023-01-28T09:09:14.525Z,102625.28
2023-01-28T09:11:43.505Z,102636.47
2023-01-28T09:14:11.327Z,102642.06
2023-01-28T09:16:38.975Z,102644.84
2023-01-28T09:19:06.611Z,102647.63
2023-01-28T09:21:34.524Z,102643.19
2023-01-28T09:24:02.122Z,102647.63
2023-01-28T09:26:29.723Z,102651.56
2023-01-28T09:28:58.684Z,102658.81
2023-01-28T09:31:26.393Z,102651.56
2023-01-28T09:33:57.142Z,102666.06
2023-01-28T09:36:24.759Z,102662.75
2023-01-28T09:38:52.984Z,102656.13
2023-01-28T09:41:27.423Z,102657.16
2023-01-28T09:43:59.272Z,102668.34
2023-01-28T09:46:29.927Z,102667.50
2023-01-28T09:48:57.552Z,102662.75
2023-01-28T09:51:29.868Z,102668.34
2023-01-28T09:53:58.390Z,102673.94
2023-01-28T09:56:26.858Z,102679.53
2023-01-28T09:58:54.462Z,102673.94
2023-01-28T10:01:30.094Z,102670.31
2023-01-28T10:04:00.211Z,102662.75
2023-01-28T10:06:30.052Z,102673.09
2023-01-28T10:09:15.140Z,102673.94
2023-01-28T10:11:45.450Z,102672.28
2023-01-28T10:14:14.558Z,102670.59
2023-01-28T10:16:42.541Z,102662.75
2023-01-28T10:19:16.781Z,102666.69
2023-01-28T10:21:45.224Z,102670.59
2023-01-28T10:24:15.382Z,102667.81
2023-01-28T10:26:42.971Z,102660.25
2023-01-28T10:29:14.458Z,102655.50
2023-01-28T10:31:43.806Z,102658.81
2023-01-28T10:34:13.249Z,102659.31
2023-01-28T10:36:40.908Z,102654.88
2023-01-28T10:39:09.070Z,102643.38
2023-01-28T10:41:45.373Z,102648.16
2023-01-28T10:44:18.032Z,102650.94
2023-01-28T10:46:46.366Z,102645.34
2023-01-28T10:49:16.301Z,102646.19
2023-01-28T10:51:44.007Z,102647.00
2023-01-28T10:54:19.491Z,102649.78
2023-01-28T10:56:47.082Z,102635.81
2023-01-28T10:59:21.637Z,102641.72
2023-01-28T11:01:50.649Z,102641.00
2023-01-28T11:04:20.694Z,102643.69
2023-01-28T11:06:54.818Z,102642.06
2023-01-28T11:09:23.159Z,102638.13
2023-01-28T11:11:50.769Z,102650.13
2023-01-28T11:14:21.844Z,102648.16
2023-01-28T11:16:49.617Z,102648.16
2023-01-28T11:19:17.157Z,102640.91
2023-01-28T11:21:50.646Z,102649.28
2023-01-28T11:24:19.962Z,102640.91
2023-01-28T11:26:49.387Z,102639.25
2023-01-28T11:29:22.284Z,102630.88
2023-01-28T11:31:49.927Z,102638.13
2023-01-28T11:34:17.928Z,102626.13
2023-01-28T11:36:52.448Z,102625.28
2023-01-28T11:39:21.827Z,102626.94
2023-01-28T11:41:49.650Z,102626.94
2023-01-28T11:44:18.101Z,102627.44
2023-01-28T11:46:49.429Z,102623.00
2023-01-28T11:49:19.962Z,102618.56
2023-01-28T11:51:48.527Z,102623.81
2023-01-28T11:54:23.700Z,102613.47
2023-01-28T11:56:54.575Z,102601.47
2023-01-28T11:59:36.073Z,102604.25
2023-01-28T12:02:05.874Z,102605.41
2023-01-28T12:04:41.376Z,102607.88
2023-01-28T12:07:16.168Z,102604.59
2023-01-28T12:09:47.502Z,102610.19
2023-01-28T12:12:19.253Z,102610.19
2023-01-28T12:15:00.105Z,102606.22
2023-01-28T12:17:29.259Z,102603.75
2023-01-28T12:20:02.572Z,102593.41
2023-01-28T12:22:37.138Z,102594.56
2023-01-28T12:25:10.065Z,102597.03
2023-01-28T12:27:41.505Z,102599.81
2023-01-28T12:30:12.656Z,102602.28
2023-01-28T12:32:43.229Z,102596.19
2023-01-28T12:35:23.213Z,102597.84
2023-01-28T12:38:00.347Z,102591.13
2023-01-28T12:40:45.889Z,102591.13
2023-01-28T12:43:15.727Z,102601.19
2023-01-28T12:45:45.517Z,102596.72
2023-01-28T12:48:13.415Z,102579.94
2023-01-28T12:50:42.371Z,102582.22
2023-01-28T12:53:12.696Z,102580.78
2023-01-28T12:55:41.018Z,102585.53
2023-01-28T12:58:10.363Z,102583.88
2023-01-28T13:00:39.677Z,102583.88
2023-01-28T13:03:10.508Z,102578.28
2023-01-28T13:05:38.696Z,102579.13
2023-01-28T13:08:07.232Z,102569.91
2023-01-28T13:10:36.592Z,102566.81
2023-01-28T13:13:04.201Z,102568.78
2023-01-28T13:15:31.915Z,102556.75
2023-01-28T13:18:01.116Z,102557.59
2023-01-28T13:20:30.992Z,102557.59
2023-01-28T13:23:01.491Z,102548.09
2023-01-28T13:25:29.330Z,102547.28
2023-01-28T13:27:57.812Z,102556.16
2023-01-28T13:30:26.587Z,102548.59
2023-01-28T13:33:02.083Z,102536.91
2023-01-28T13:35:31.477Z,102539.72
2023-01-28T13:37:59.020Z,102538.56
2023-01-28T13:40:27.066Z,102542.50
2023-01-28T13:43:02.131Z,102532.44
2023-01-28T13:45:29.802Z,102538.03
2023-01-28T13:47:59.674Z,102543.63
2023-01-28T13:50:31.060Z,102535.25
2023-01-28T13:52:59.253Z,102545.31
2023-01-28T13:55:42.759Z,102547.28
2023-01-28T13:58:26.895Z,102548.09
2023-01-28T14:01:00.600Z,102536.91
2023-01-28T14:03:47.305Z,102529.66
2023-01-28T14:06:29.801Z,102519.31
2023-01-28T14:09:04.401Z,102529.66
2023-01-28T14:11:53.457Z,102529.66
2023-01-28T14:14:27.573Z,102524.91
2023-01-28T14:16:56.392Z,102525.75
2023-01-28T14:19:27.112Z,102526.56
2023-01-28T14:21:54.864Z,102518.47
2023-01-28T14:24:23.946Z,102512.88
2023-01-28T14:26:54.400Z,102504.00
2023-01-28T14:29:25.068Z,102513.53
2023-01-28T14:31:52.965Z,102514.69
2023-01-28T14:34:22.975Z,102511.88
2023-01-28T14:36:50.664Z,102523.06
2023-01-28T14:39:18.865Z,102541.47
2023-01-28T14:41:48.849Z,102541.47
2023-01-28T14:44:20.789Z,102539.19
2023-01-28T14:46:50.696Z,102533.59
2023-01-28T14:49:21.599Z,102535.25
2023-01-28T14:51:53.308Z,102540.81
2023-01-28T14:54:27.431Z,102542.50
2023-01-28T14:57:00.379Z,102547.28
2023-01-28T14:59:28.918Z,102546.41
2023-01-28T15:01:56.975Z,102542.50
2023-01-28T15:04:25.086Z,102542.50
2023-01-28T15:06:52.923Z,102544.16
2023-01-28T15:09:20.508Z,102543.00
2023-01-28T15:11:48.872Z,102548.91
2023-01-28T15:14:19.536Z,102548.09
2023-01-28T15:16:48.488Z,102550.88
2023-01-28T15:19:16.134Z,102559.28
2023-01-28T15:21:44.160Z,102547.78
2023-01-28T15:24:12.339Z,102546.94
2023-01-28T15:26:40.006Z,102539.72
2023-01-28T15:29:07.789Z,102538.56
2023-01-28T15:31:38.911Z,102543.34
2023-01-28T15:34:12.035Z,102538.56
2023-01-28T15:36:40.121Z,102539.38
2023-01-28T15:39:13.849Z,102544.16
2023-01-28T15:41:42.114Z,102539.38
2023-01-28T15:44:16.346Z,102544.16
2023-01-28T15:46:45.320Z,102536.59
2023-01-28T15:49:16.066Z,102556.97
2023-01-28T15:51:43.649Z,102545.81
2023-01-28T15:54:11.380Z,102565.38
2023-01-28T15:56:39.202Z,102562.56
2023-01-28T15:59:10.682Z,102564.22
2023-01-28T16:01:38.357Z,102562.56
2023-01-28T16:04:09.564Z,102565.38
2023-01-28T16:06:37.539Z,102569.81
2023-01-28T16:09:05.778Z,102574.56
2023-01-28T16:11:33.820Z,102574.56
2023-01-28T16:14:01.410Z,102579.00
2023-01-28T16:16:29.760Z,102576.22
2023-01-28T16:18:57.382Z,102564.22
2023-01-28T16:21:27.715Z,102564.22
2023-01-28T16:23:59.799Z,102567.00
2023-01-28T16:26:27.926Z,102576.53
2023-01-28T16:28:55.589Z,102569.81
2023-01-28T16:31:23.491Z,102564.22
2023-01-28T16:33:51.145Z,102564.22
2023-01-28T16:36:19.184Z,102556.97
2023-01-28T16:38:48.716Z,102556.97
2023-01-28T16:41:17.604Z,102555.34
2023-01-28T16:43:45.259Z,102566.50
2023-01-28T16:46:13.393Z,102573.75
2023-01-28T16:48:41.009Z,102579.34
2023-01-28T16:51:11.030Z,102579.34
2023-01-28T16:53:39.221Z,102570.94
2023-01-28T16:56:19.743Z,102564.22
2023-01-28T16:58:56.834Z,102580.97
2023-01-28T17:01:25.086Z,102587.41
2023-01-28T17:03:52.782Z,102586.56
2023-01-28T17:06:21.017Z,102584.59
2023-01-28T17:08:49.246Z,102594.66
2023-01-28T17:11:18.722Z,102612.25
2023-01-28T17:13:46.546Z,102599.41
2023-01-28T17:16:14.476Z,102601.06
2023-01-28T17:18:42.409Z,102606.66
2023-01-28T17:21:11.023Z,102612.25
2023-01-28T17:23:38.874Z,102622.28
2023-01-28T17:26:06.888Z,102616.69
2023-01-28T17:28:36.000Z,102619.50
2023-01-28T17:31:06.446Z,102625.91
2023-01-28T17:33:34.615Z,102637.91
2023-01-28T17:36:03.072Z,102640.72
2023-01-28T17:38:31.203Z,102637.41
2023-01-28T17:41:01.801Z,102636.88
2023-01-28T17:43:29.428Z,102638.53
2023-01-28T17:45:58.913Z,102646.91
2023-01-28T17:48:26.548Z,102617.03
2023-01-28T17:50:56.695Z,102614.22
2023-01-28T17:53:24.362Z,102615.34
2023-01-28T17:55:52.143Z,102600.66
2023-01-28T17:58:19.732Z,102612.03
2023-01-28T18:00:47.460Z,102614.50
2023-01-28T18:03:16.524Z,102613.69
2023-01-28T18:05:44.263Z,102614.50
2023-01-28T18:08:12.028Z,102614.50
2023-01-28T18:10:39.803Z,102625.69
2023-01-28T18:13:07.439Z,102629.63
2023-01-28T18:15:35.256Z,102629.63
2023-01-28T18:18:02.835Z,102632.41
2023-01-28T18:20:31.826Z,102625.69
2023-01-28T18:22:59.561Z,102619.28
2023-01-28T18:25:27.579Z,102622.41
2023-01-28T18:27:55.893Z,102605.63
2023-01-28T18:30:23.759Z,102610.38
2023-01-28T18:32:51.469Z,102621.56
2023-01-28T18:35:19.374Z,102619.06
2023-01-28T18:37:48.986Z,102624.66
2023-01-28T18:40:16.864Z,102619.06
2023-01-28T18:42:44.705Z,102613.47
2023-01-28T18:45:12.754Z,102613.47
2023-01-28T18:47:41.585Z,102613.47
2023-01-28T18:50:10.357Z,102619.06
2023-01-28T18:52:38.313Z,102611.81
2023-01-28T18:55:08.886Z,102617.41
2023-01-28T18:57:36.787Z,102620.19
2023-01-28T19:00:05.445Z,102634.19
2023-01-28T19:02:33.414Z,102628.59
2023-01-28T19:05:02.161Z,102623.00
2023-01-28T19:07:31.063Z,102623.00
2023-01-28T19:09:58.744Z,102624.16
2023-01-28T19:12:27.923Z,102615.75
2023-01-28T19:14:57.112Z,102615.25
2023-01-28T19:17:25.151Z,102612.47
2023-01-28T19:19:52.876Z,102618.06
2023-01-28T19:22:20.565Z,102612.47
2023-01-28T19:24:48.369Z,102618.06
2023-01-28T19:27:16.157Z,102618.88
2023-01-28T19:29:45.308Z,102618.06
2023-01-28T19:32:13.039Z,102618.06
2023-01-28T19:34:40.779Z,102618.88
2023-01-28T19:37:08.690Z,102612.47
2023-01-28T19:39:37.082Z,102611.63
2023-01-28T19:42:05.544Z,102599.63
2023-01-28T19:44:34.604Z,102603.53
2023-01-28T19:47:05.785Z,102602.72
2023-01-28T19:49:33.630Z,102604.69
2023-01-28T19:52:01.480Z,102605.22
2023-01-28T19:54:29.483Z,102605.22
2023-01-28T19:56:57.275Z,102600.25
2023-01-28T19:59:25.368Z,102605.22
2023-01-28T20:01:53.495Z,102619.19
2023-01-28T20:04:22.928Z,102616.41
2023-01-28T20:06:50.766Z,102626.44
2023-01-28T20:09:19.747Z,102625.59
2023-01-28T20:11:47.435Z,102638.44
2023-01-28T20:14:16.153Z,102647.63
2023-01-28T20:16:43.715Z,102650.44
2023-01-28T20:19:14.396Z,102644.84
2023-01-28T20:21:43.722Z,102642.06
2023-01-28T20:24:11.687Z,102634.50
2023-01-28T20:26:39.575Z,102628.09
2023-01-28T20:29:07.422Z,102632.03
2023-01-28T20:31:35.314Z,102628.09
2023-01-28T20:34:03.111Z,102628.41
2023-01-28T20:36:30.780Z,102618.06
2023-01-28T20:38:59.814Z,102622.50
2023-01-28T20:41:27.576Z,102611.63
2023-01-28T20:43:55.329Z,102611.63
2023-01-28T20:46:23.476Z,102606.06
2023-01-28T20:48:51.292Z,102606.88
2023-01-28T20:51:19.474Z,102617.22
2023-01-28T20:53:47.908Z,102618.06
2023-01-28T20:56:17.345Z,102617.22
2023-01-28T20:58:45.087Z,102606.88
2023-01-28T21:01:16.895Z,102602.44
2023-01-28T21:03:44.559Z,102604.38
2023-01-28T21:06:12.255Z,102597.97
2023-01-28T21:08:40.033Z,102616.41
2023-01-28T21:11:07.703Z,102617.50
2023-01-28T21:13:36.658Z,102610.28
2023-01-28T21:16:04.442Z,102619.47
2023-01-28T21:18:32.024Z,102609.13
2023-01-28T21:21:03.144Z,102613.06
2023-01-28T21:23:30.791Z,102600.25
2023-01-28T21:26:00.569Z,102599.41
2023-01-28T21:28:28.207Z,102589.06
2023-01-28T21:30:57.450Z,102588.25
2023-01-28T21:33:25.199Z,102589.38
2023-01-28T21:35:52.900Z,102599.41
2023-01-28T21:38:20.493Z,102597.78
2023-01-28T21:40:48.123Z,102590.22
2023-01-28T21:43:15.691Z,102593.00
2023-01-28T21:45:43.323Z,102589.16
2023-01-28T21:48:12.569Z,102593.84
2023-01-28T21:51:00.324Z,102603.34
2023-01-28T21:53:27.915Z,102611.41
2023-01-28T21:55:55.532Z,102602.53
2023-01-28T21:58:40.870Z,102595.25
2023-01-28T22:01:09.254Z,102596.94
2023-01-28T22:03:38.318Z,102581.28
2023-01-28T22:06:06.185Z,102585.78
2023-01-28T22:08:33.745Z,102584.09
2023-01-28T22:11:02.787Z,102588.03
2023-01-28T22:13:30.360Z,102584.09
2023-01-28T22:15:58.003Z,102584.09
2023-01-28T22:18:25.747Z,102579.66
2023-01-28T22:21:01.061Z,102578.50
2023-01-28T22:23:28.695Z,102578.50
2023-01-28T22:25:56.749Z,102570.44
2023-01-28T22:28:24.543Z,102574.06
2023-01-28T22:30:52.456Z,102576.84
2023-01-28T22:33:20.870Z,102566.81
2023-01-28T22:35:48.548Z,102564.03
2023-01-28T22:38:17.571Z,102575.19
2023-01-28T22:40:45.368Z,102575.19
2023-01-28T22:43:13.145Z,102569.63
2023-01-28T22:45:40.938Z,102567.97
2023-01-28T22:48:08.584Z,102566.41
2023-01-28T22:50:36.138Z,102579.13
2023-01-28T22:53:03.970Z,102567.97
2023-01-28T22:55:34.222Z,102561.56
2023-01-28T22:58:01.828Z,102556.78
2023-01-28T23:00:29.405Z,102550.38
2023-01-28T23:02:57.292Z,102552.34
2023-01-28T23:05:25.021Z,102556.78
2023-01-28T23:07:52.705Z,102547.28
2023-01-28T23:10:20.436Z,102545.63
2023-01-28T23:12:54.422Z,102550.38
2023-01-28T23:15:41.413Z,102543.97
2023-01-28T23:18:28.047Z,102542.31
2023-01-28T23:21:12.974Z,102531.16
2023-01-28T23:23:58.061Z,102529.47
2023-01-28T23:26:25.656Z,102546.75
2023-01-28T23:28:54.630Z,102536.09
2023-01-28T23:31:22.517Z,102532.16
2023-01-28T23:33:50.348Z,102528.22
2023-01-28T23:36:18.241Z,102528.22
2023-01-28T23:38:45.819Z,102528.22
2023-01-28T23:41:13.616Z,102526.56
2023-01-28T23:43:41.392Z,102522.63
